Hlavní strana
METAR-TAF:

METAR-TAF

Letiště :

Mezinárodní letiště Si-an Sien-jang

Si-an, Čína

zeměpisná šířka: 34-26N, zeměpisná délka: 108-45E, výška: 479 m

Aktuální stav počasí

Zpráva byla vytvořena před 45 minutami, v 18:00 UTC
Severovýchodní vítr 12 kt
Teplota 13°C
Vlhkost vzduchu 58%
Tlak 1022 hPa
Viditelnost: 7000 m

METAR: ZLXY 181800Z 04006MPS 7000 NSC 13/05 Q1022 NOSIG

Čas: 02:45 (18:45 UTC)

Předpověď počasí

Zpráva byla vytvořena před 3 hodinami a 33 minutami, v 15:12 UTC
Předpověď platná od 18 v 18 UTC do 19 v 18 UTC
Východoseverovýchodní vítr 12 kt s nárazy do 21 kt
Viditelnost: 3000 m
zákal

TAF: ZLXY 181512Z 1818/1918 06006G11MPS 3000 HZ NSC TX19/1907Z TN12/1821Z

Stav a předpovědi počasí z více než 4 000 letišť (zprávy METAR a TAF).

Červené a žluté tečky na mapě představují dostupné meteorologické stanice.

Když kurzor umístíte na tečku, zobrazí se název stanice.

Pak kliknutím zobrazíte stav a předpověď počasí.

Chcete-li změnit mapu, kliknutím na zelené tlačítko se znaménkem +mapu přiblížíte, kliknutím na zelené tlačítko se znaménkem – mapu oddálíte a kliknutím na zelené šipky přejdete na sousední mapy.


METAR-TAF: